Baton Rouge — 2CZZ7 — position and weather

sailwx.info

Track history (hours):
 
Tides and Currents Weather Stations Pressure Air Temp Water Temp Dewpoint Dewpoint Depression Visibility Wind Speed Wind Dir Waves Ship Positions

Baton Rouge

Last reported at 2015-Apr-18 12:33 UTC. Time now 2015-Apr-18 13:12 UTC.
Position N 43°35' E 007°08'.

Length 62 m; draft 3.7 m.

Type: Pleasure craft. MMSI: 235077185.

Date/timePositionNaut miles runAvg speedWind from/ knotsBaromVisibWave heightAir tempDewpointWater temp
2015-Apr-18 12:33N 43°35' E 007°08'0 0.0
2015-Apr-18 11:33N 43°35' E 007°08'0 0.0
2015-Apr-18 10:33N 43°35' E 007°08'0 0.0
2015-Apr-18 09:33N 43°35' E 007°08'0 0.0
2015-Apr-18 08:33N 43°35' E 007°08'0 0.0
2015-Apr-18 07:33N 43°35' E 007°08'0 0.0
2015-Apr-18 06:33N 43°35' E 007°08'0 0.0
2015-Apr-18 05:33N 43°35' E 007°08'0 0.0
2015-Apr-18 04:33N 43°35' E 007°08'0 0.0
2015-Apr-18 03:33N 43°35' E 007°08'0 0.0
2015-Apr-18 02:33N 43°35' E 007°08'0 0.0
2015-Apr-18 01:33N 43°35' E 007°08'0 0.0
2015-Apr-18 00:27N 43°35' E 007°08'0 0.0
2015-Apr-17 23:33N 43°35' E 007°08'0 0.0
2015-Apr-17 22:33N 43°35' E 007°08'0 0.0
2015-Apr-17 21:33N 43°35' E 007°08'0 0.0
2015-Apr-17 20:33N 43°35' E 007°08'0 0.0
2015-Apr-17 19:33N 43°35' E 007°08'0 0.0
2015-Apr-17 18:33N 43°35' E 007°08'0 0.0
2015-Apr-17 17:33N 43°35' E 007°08'0 0.0
2015-Apr-17 16:33N 43°35' E 007°08'0 0.0
2015-Apr-17 15:33N 43°35' E 007°08'0 0.0
2015-Apr-17 14:33N 43°35' E 007°08'0 0.0
2015-Apr-17 13:33N 43°35' E 007°08'0 0.0
2015-Apr-17 12:33N 43°35' E 007°08'0 0.2
2015-Apr-17 11:32N 43°35' E 007°08'0 0.0
2015-Apr-17 10:32N 43°35' E 007°08'0 0.0
2015-Apr-17 09:32N 43°35' E 007°08'0 0.0
2015-Apr-17 08:32N 43°35' E 007°08'0 0.0
2015-Apr-17 07:33N 43°35' E 007°08'8 8.0
2015-Apr-17 06:34N 43°40' E 007°16'1 0.6
2015-Apr-17 04:28N 43°42' E 007°17'0 0.0
2015-Apr-17 02:10N 43°42' E 007°17'0 0.0
2015-Apr-17 01:16N 43°42' E 007°17'0 0.0
2015-Apr-17 00:16N 43°42' E 007°17'0 0.0
2015-Apr-16 23:28N 43°42' E 007°17'0 0.0
2015-Apr-16 22:28N 43°42' E 007°17'0 0.0
2015-Apr-16 21:28N 43°42' E 007°17'0 0.0
2015-Apr-16 20:28N 43°42' E 007°17'0 0.0
2015-Apr-16 19:22N 43°42' E 007°17'0 0.0
2015-Apr-16 18:28N 43°42' E 007°17'0 0.0
2015-Apr-16 17:28N 43°42' E 007°17'0 0.0
2015-Apr-16 16:28N 43°42' E 007°17'0 0.0
2015-Apr-16 15:28N 43°42' E 007°17'0 0.0
2015-Apr-16 14:16N 43°42' E 007°17'0 0.0
2015-Apr-16 13:28N 43°42' E 007°17'0 0.0
2015-Apr-16 12:28N 43°42' E 007°17'0 0.0
2015-Apr-16 11:28N 43°42' E 007°17'0 0.0
2015-Apr-16 10:22N 43°42' E 007°17'0 0.0
2015-Apr-16 09:28N 43°42' E 007°17'0 0.0
2015-Apr-16 08:28N 43°42' E 007°17'0 0.0
2015-Apr-16 07:10N 43°42' E 007°17'0 0.0
2015-Apr-16 05:28N 43°42' E 007°17'0 0.0
2015-Apr-16 04:28N 43°42' E 007°17'0 0.0
2015-Apr-16 03:04N 43°42' E 007°17'0 0.0
2015-Apr-16 02:16N 43°42' E 007°17'0 0.0
2015-Apr-16 01:28N 43°42' E 007°17'0 0.0
2015-Apr-16 00:10N 43°42' E 007°17'0 0.0
2015-Apr-15 23:28N 43°42' E 007°17'0 0.0
2015-Apr-15 22:28N 43°42' E 007°17'0 0.0
2015-Apr-15 21:28N 43°42' E 007°17'0 0.0
2015-Apr-15 20:28N 43°42' E 007°17'0 0.0
2015-Apr-15 19:28N 43°42' E 007°17'0 0.0
2015-Apr-15 18:16N 43°42' E 007°17'0 0.0
2015-Apr-15 17:16N 43°42' E 007°17'0 0.0
2015-Apr-15 16:28N 43°42' E 007°17'0 0.0
2015-Apr-15 14:22N 43°42' E 007°17'0 0.0
2015-Apr-15 13:28N 43°42' E 007°17'0 0.0
2015-Apr-15 12:28N 43°42' E 007°17'0 0.0
2015-Apr-15 11:28N 43°42' E 007°17'0 0.0
2015-Apr-15 10:28N 43°42' E 007°17'0 0.0
2015-Apr-15 09:16N 43°42' E 007°17'0 0.0
2015-Apr-15 08:28N 43°42' E 007°17'0 0.0
2015-Apr-15 07:28N 43°42' E 007°17'0 0.3
2015-Apr-15 06:33N 43°41' E 007°17'6 5.9
2015-Apr-15 05:33N 43°37' E 007°11'3 3.2
2015-Apr-15 04:33N 43°35' E 007°08'0 0.0
2015-Apr-15 03:33N 43°35' E 007°08'0 0.0
2015-Apr-15 02:33N 43°35' E 007°08'0 0.0
2015-Apr-15 01:33N 43°35' E 007°08'0 0.0
2015-Apr-15 00:33N 43°35' E 007°08'0 0.0
2015-Apr-14 23:33N 43°35' E 007°08'0 0.0
2015-Apr-14 22:33N 43°35' E 007°08'0 0.0
2015-Apr-14 21:33N 43°35' E 007°08'0 0.0
2015-Apr-14 20:33N 43°35' E 007°08'0 0.0
2015-Apr-14 19:33N 43°35' E 007°08'0 0.0
2015-Apr-14 18:33N 43°35' E 007°08'0 0.0
2015-Apr-14 17:33N 43°35' E 007°08'0 0.0
2015-Apr-14 16:33N 43°35' E 007°08'0 0.0
2015-Apr-14 15:33N 43°35' E 007°08'0 0.0
2015-Apr-14 14:33N 43°35' E 007°08'0 0.0
2015-Apr-14 13:33N 43°35' E 007°08'0 0.0
2015-Apr-14 12:27N 43°35' E 007°08'0 0.0
2015-Apr-14 11:33N 43°35' E 007°08'0 0.0
2015-Apr-14 10:33N 43°35' E 007°08'0 0.0
2015-Apr-14 09:33N 43°35' E 007°08'0 0.0
2015-Apr-14 08:33N 43°35' E 007°08'0 0.0
2015-Apr-14 07:33N 43°35' E 007°08'0 0.0
2015-Apr-14 06:33N 43°35' E 007°08'0 0.0
2015-Apr-14 05:33N 43°35' E 007°08'0 0.0
2015-Apr-14 04:33N 43°35' E 007°08'0 0.0
2015-Apr-14 03:33N 43°35' E 007°08'0 0.0
2015-Apr-14 02:33N 43°35' E 007°08'0 0.0
2015-Apr-14 01:33N 43°35' E 007°08'0 0.0
2015-Apr-14 00:32N 43°35' E 007°08'0 0.0
2015-Apr-13 23:27N 43°35' E 007°08'0 0.0
2015-Apr-13 22:33N 43°35' E 007°08'0 0.0
2015-Apr-13 21:33N 43°35' E 007°08'0 0.0
2015-Apr-13 20:33N 43°35' E 007°08'0 0.0
2015-Apr-13 19:32N 43°35' E 007°08'0 0.0
2015-Apr-13 18:33N 43°35' E 007°08'0 0.0
2015-Apr-13 17:33N 43°35' E 007°08'0 0.0
2015-Apr-13 16:33N 43°35' E 007°08'0 0.0
2015-Apr-13 15:33N 43°35' E 007°08'0 0.0
2015-Apr-13 14:32N 43°35' E 007°08'0 0.0
2015-Apr-13 13:32N 43°35' E 007°08'0 0.0
2015-Apr-13 12:32N 43°35' E 007°08'0 0.0
2015-Apr-13 11:33N 43°35' E 007°08'0 0.0
2015-Apr-13 10:33N 43°35' E 007°08'0 0.0
2015-Apr-13 09:33N 43°35' E 007°08'0 0.0
2015-Apr-13 08:33N 43°35' E 007°08'0 0.0
2015-Apr-13 07:33N 43°35' E 007°08'0 0.0
2015-Apr-13 06:32N 43°35' E 007°08'0 0.0
2015-Apr-13 05:32N 43°35' E 007°08'0 0.0
2015-Apr-13 04:32N 43°35' E 007°08'0 0.0
2015-Apr-13 03:32N 43°35' E 007°08'0 0.0
2015-Apr-13 02:32N 43°35' E 007°08'0 0.0
2015-Apr-13 01:32N 43°35' E 007°08'0 0.0
2015-Apr-13 00:32N 43°35' E 007°08'0 0.0
2015-Apr-12 23:32N 43°35' E 007°08'0 0.0
2015-Apr-12 22:32N 43°35' E 007°08'0 0.0
2015-Apr-12 21:32N 43°35' E 007°08'0 0.0
2015-Apr-12 20:32N 43°35' E 007°08'0 0.0
2015-Apr-12 19:32N 43°35' E 007°08'0 0.0
2015-Apr-12 18:32N 43°35' E 007°08'0 0.0
2015-Apr-12 17:32N 43°35' E 007°08'0 0.0
2015-Apr-12 16:26N 43°35' E 007°08'0 0.0
2015-Apr-12 15:32N 43°35' E 007°08'0 0.0
2015-Apr-12 14:32N 43°35' E 007°08'0 0.0
2015-Apr-12 13:32N 43°35' E 007°08'0 0.0
2015-Apr-12 12:32N 43°35' E 007°08'0 0.0
2015-Apr-12 11:32N 43°35' E 007°08'0 0.0
2015-Apr-12 10:32N 43°35' E 007°08'0 0.0
2015-Apr-12 09:32N 43°35' E 007°08'0 0.0
2015-Apr-12 08:32N 43°35' E 007°08'0 0.0
2015-Apr-12 07:32N 43°35' E 007°08'0 0.0
2015-Apr-12 06:32N 43°35' E 007°08'0 0.0
2015-Apr-12 05:32N 43°35' E 007°08'0 0.0
2015-Apr-12 04:26N 43°35' E 007°08'0 0.0
2015-Apr-12 03:32N 43°35' E 007°08'0 0.0
2015-Apr-12 02:20N 43°35' E 007°08'0 0.0
2015-Apr-12 01:32N 43°35' E 007°08'0 0.0
2015-Apr-12 00:32N 43°35' E 007°08'0 0.0
2015-Apr-11 23:20N 43°35' E 007°08'0 0.0
2015-Apr-11 22:32N 43°35' E 007°08'0 0.0
2015-Apr-11 21:32N 43°35' E 007°08'0 0.0
2015-Apr-11 20:32N 43°35' E 007°08'0 0.0
2015-Apr-11 19:32N 43°35' E 007°08'0 0.0
2015-Apr-11 18:32N 43°35' E 007°08'0 0.0
2015-Apr-11 17:32N 43°35' E 007°08'0 0.0
2015-Apr-11 16:32N 43°35' E 007°08'0 0.0
2015-Apr-11 15:32N 43°35' E 007°08'0 0.0
2015-Apr-11 14:32N 43°35' E 007°08'0 0.0
2015-Apr-11 13:32N 43°35' E 007°08'0 0.0
2015-Apr-11 12:32N 43°35' E 007°08'0 0.0
2015-Apr-11 11:32N 43°35' E 007°08'0 0.0
2015-Apr-11 10:26N 43°35' E 007°08'0 0.0
2015-Apr-11 09:32N 43°35' E 007°08'0 0.0
2015-Apr-11 08:32N 43°35' E 007°08'0 0.0
2015-Apr-11 07:32N 43°35' E 007°08'0 0.0
2015-Apr-11 06:32N 43°35' E 007°08'0 0.0
2015-Apr-11 05:32N 43°35' E 007°08'0 0.0
2015-Apr-11 04:32N 43°35' E 007°08'0 0.0
2015-Apr-11 03:14N 43°35' E 007°08'0 0.0
2015-Apr-11 02:32N 43°35' E 007°08'0 0.0
2015-Apr-11 01:32N 43°35' E 007°08'0 0.0
2015-Apr-11 00:32N 43°35' E 007°08'0 0.0
2015-Apr-10 23:32N 43°35' E 007°08'0 0.0
2015-Apr-10 22:32N 43°35' E 007°08'0 0.0
2015-Apr-10 21:32N 43°35' E 007°08'0 0.0
2015-Apr-10 20:32N 43°35' E 007°08'0 0.0
2015-Apr-10 19:32N 43°35' E 007°08'0 0.0
2015-Apr-10 18:32N 43°35' E 007°08'0 0.0
2015-Apr-10 17:32N 43°35' E 007°08'0 0.0
2015-Apr-10 16:32N 43°35' E 007°08'0 0.0
2015-Apr-10 15:32N 43°35' E 007°08'0 0.0
2015-Apr-10 14:32N 43°35' E 007°08'0 0.0
2015-Apr-10 13:32N 43°35' E 007°08'0 0.0
2015-Apr-10 12:32N 43°35' E 007°08'0 0.0
2015-Apr-10 11:32N 43°35' E 007°08'0 0.0
2015-Apr-10 10:32N 43°35' E 007°08'0 0.0
2015-Apr-10 09:26N 43°35' E 007°08'0 0.0
2015-Apr-10 08:32N 43°35' E 007°08'0 0.0
2015-Apr-10 07:32N 43°35' E 007°08'0 0.0
2015-Apr-10 06:32N 43°35' E 007°08'0 0.0
2015-Apr-10 05:32N 43°35' E 007°08'0 0.0
2015-Apr-10 04:32N 43°35' E 007°08'0 0.0
2015-Apr-10 03:32N 43°35' E 007°08'0 0.0
2015-Apr-10 02:32N 43°35' E 007°08'0 0.0
2015-Apr-10 01:26N 43°35' E 007°08'0 0.0
2015-Apr-10 00:32N 43°35' E 007°08'0 0.0
2015-Apr-09 23:32N 43°35' E 007°08'0 0.0
2015-Apr-09 22:32N 43°35' E 007°08'0 0.0
2015-Apr-09 21:32N 43°35' E 007°08'0 0.0
2015-Apr-09 20:32N 43°35' E 007°08'0 0.0
2015-Apr-09 19:32N 43°35' E 007°08'0 0.0
2015-Apr-09 18:32N 43°35' E 007°08'0 0.0
2015-Apr-09 17:26N 43°35' E 007°08'0 0.0
2015-Apr-09 16:20N 43°35' E 007°08'0 0.0
2015-Apr-09 15:32N 43°35' E 007°08'0 0.0
2015-Apr-09 14:32N 43°35' E 007°08'0 0.0
2015-Apr-09 13:32N 43°35' E 007°08'0 0.0
2015-Apr-09 12:32N 43°35' E 007°08'0 0.0
2015-Apr-09 11:32N 43°35' E 007°08'0 0.0
2015-Apr-09 10:32N 43°35' E 007°08'0 0.0
2015-Apr-09 09:26N 43°35' E 007°08'0 0.0
2015-Apr-09 08:32N 43°35' E 007°08'0 0.0
2015-Apr-09 07:32N 43°35' E 007°08'0 0.0
2015-Apr-09 06:32N 43°35' E 007°08'0 0.0
2015-Apr-09 05:32N 43°35' E 007°08'0 0.0
2015-Apr-09 04:32N 43°35' E 007°08'0 0.0
2015-Apr-09 03:26N 43°35' E 007°08'0 0.0
2015-Apr-09 02:32N 43°35' E 007°08'0 0.0
2015-Apr-09 01:26N 43°35' E 007°08'0 0.0
2015-Apr-09 00:32N 43°35' E 007°08'0 0.0
2015-Apr-08 23:32N 43°35' E 007°08'0 0.0
2015-Apr-08 22:32N 43°35' E 007°08'0 0.0
2015-Apr-08 21:26N 43°35' E 007°08'0 0.0
2015-Apr-08 20:32N 43°35' E 007°08'0 0.0
2015-Apr-08 19:32N 43°35' E 007°08'0 0.0
2015-Apr-08 18:32N 43°35' E 007°08'0 0.0
2015-Apr-08 17:26N 43°35' E 007°08'0 0.0
2015-Apr-08 16:32N 43°35' E 007°08'0 0.0
2015-Apr-08 15:32N 43°35' E 007°08'0 0.0
2015-Apr-08 14:32N 43°35' E 007°08'0 0.0
2015-Apr-08 13:32N 43°35' E 007°08'  
Track history (hours):
 
Tides and Currents Weather Stations Pressure Air Temp Water Temp Dewpoint Dewpoint Depression Visibility Wind Speed Wind Dir Waves Ship Positions

Baton Rouge

Last reported at 2015-Apr-18 12:33 UTC. Time now 2015-Apr-18 13:12 UTC.
Position N 43°35' E 007°08'.

Length 62 m; draft 3.7 m.

Type: Pleasure craft. MMSI: 235077185.

Date/timePositionNaut miles runAvg speedWind from/ knotsBaromVisibWave heightAir tempDewpointWater temp
2015-Apr-18 12:33N 43°35' E 007°08'0 0.0
2015-Apr-18 11:33N 43°35' E 007°08'0 0.0
2015-Apr-18 10:33N 43°35' E 007°08'0 0.0
2015-Apr-18 09:33N 43°35' E 007°08'0 0.0
2015-Apr-18 08:33N 43°35' E 007°08'0 0.0
2015-Apr-18 07:33N 43°35' E 007°08'0 0.0
2015-Apr-18 06:33N 43°35' E 007°08'0 0.0
2015-Apr-18 05:33N 43°35' E 007°08'0 0.0
2015-Apr-18 04:33N 43°35' E 007°08'0 0.0
2015-Apr-18 03:33N 43°35' E 007°08'0 0.0
2015-Apr-18 02:33N 43°35' E 007°08'0 0.0
2015-Apr-18 01:33N 43°35' E 007°08'0 0.0
2015-Apr-18 00:27N 43°35' E 007°08'0 0.0
2015-Apr-17 23:33N 43°35' E 007°08'0 0.0
2015-Apr-17 22:33N 43°35' E 007°08'0 0.0
2015-Apr-17 21:33N 43°35' E 007°08'0 0.0
2015-Apr-17 20:33N 43°35' E 007°08'0 0.0
2015-Apr-17 19:33N 43°35' E 007°08'0 0.0
2015-Apr-17 18:33N 43°35' E 007°08'0 0.0
2015-Apr-17 17:33N 43°35' E 007°08'0 0.0
2015-Apr-17 16:33N 43°35' E 007°08'0 0.0
2015-Apr-17 15:33N 43°35' E 007°08'0 0.0
2015-Apr-17 14:33N 43°35' E 007°08'0 0.0
2015-Apr-17 13:33N 43°35' E 007°08'0 0.0
2015-Apr-17 12:33N 43°35' E 007°08'0 0.2
2015-Apr-17 11:32N 43°35' E 007°08'0 0.0
2015-Apr-17 10:32N 43°35' E 007°08'0 0.0
2015-Apr-17 09:32N 43°35' E 007°08'0 0.0
2015-Apr-17 08:32N 43°35' E 007°08'0 0.0
2015-Apr-17 07:33N 43°35' E 007°08'8 8.0
2015-Apr-17 06:34N 43°40' E 007°16'1 0.6
2015-Apr-17 04:28N 43°42' E 007°17'0 0.0
2015-Apr-17 02:10N 43°42' E 007°17'0 0.0
2015-Apr-17 01:16N 43°42' E 007°17'0 0.0
2015-Apr-17 00:16N 43°42' E 007°17'0 0.0
2015-Apr-16 23:28N 43°42' E 007°17'0 0.0
2015-Apr-16 22:28N 43°42' E 007°17'0 0.0
2015-Apr-16 21:28N 43°42' E 007°17'0 0.0
2015-Apr-16 20:28N 43°42' E 007°17'0 0.0
2015-Apr-16 19:22N 43°42' E 007°17'0 0.0
2015-Apr-16 18:28N 43°42' E 007°17'0 0.0
2015-Apr-16 17:28N 43°42' E 007°17'0 0.0
2015-Apr-16 16:28N 43°42' E 007°17'0 0.0
2015-Apr-16 15:28N 43°42' E 007°17'0 0.0
2015-Apr-16 14:16N 43°42' E 007°17'0 0.0
2015-Apr-16 13:28N 43°42' E 007°17'0 0.0
2015-Apr-16 12:28N 43°42' E 007°17'0 0.0
2015-Apr-16 11:28N 43°42' E 007°17'0 0.0
2015-Apr-16 10:22N 43°42' E 007°17'0 0.0
2015-Apr-16 09:28N 43°42' E 007°17'0 0.0
2015-Apr-16 08:28N 43°42' E 007°17'0 0.0
2015-Apr-16 07:10N 43°42' E 007°17'0 0.0
2015-Apr-16 05:28N 43°42' E 007°17'0 0.0
2015-Apr-16 04:28N 43°42' E 007°17'0 0.0
2015-Apr-16 03:04N 43°42' E 007°17'0 0.0
2015-Apr-16 02:16N 43°42' E 007°17'0 0.0
2015-Apr-16 01:28N 43°42' E 007°17'0 0.0
2015-Apr-16 00:10N 43°42' E 007°17'0 0.0
2015-Apr-15 23:28N 43°42' E 007°17'0 0.0
2015-Apr-15 22:28N 43°42' E 007°17'0 0.0
2015-Apr-15 21:28N 43°42' E 007°17'0 0.0
2015-Apr-15 20:28N 43°42' E 007°17'0 0.0
2015-Apr-15 19:28N 43°42' E 007°17'0 0.0
2015-Apr-15 18:16N 43°42' E 007°17'0 0.0
2015-Apr-15 17:16N 43°42' E 007°17'0 0.0
2015-Apr-15 16:28N 43°42' E 007°17'0 0.0
2015-Apr-15 14:22N 43°42' E 007°17'0 0.0
2015-Apr-15 13:28N 43°42' E 007°17'0 0.0
2015-Apr-15 12:28N 43°42' E 007°17'0 0.0
2015-Apr-15 11:28N 43°42' E 007°17'0 0.0
2015-Apr-15 10:28N 43°42' E 007°17'0 0.0
2015-Apr-15 09:16N 43°42' E 007°17'0 0.0
2015-Apr-15 08:28N 43°42' E 007°17'0 0.0
2015-Apr-15 07:28N 43°42' E 007°17'0 0.3
2015-Apr-15 06:33N 43°41' E 007°17'6 5.9
2015-Apr-15 05:33N 43°37' E 007°11'3 3.2
2015-Apr-15 04:33N 43°35' E 007°08'0 0.0
2015-Apr-15 03:33N 43°35' E 007°08'0 0.0
2015-Apr-15 02:33N 43°35' E 007°08'0 0.0
2015-Apr-15 01:33N 43°35' E 007°08'0 0.0
2015-Apr-15 00:33N 43°35' E 007°08'0 0.0
2015-Apr-14 23:33N 43°35' E 007°08'0 0.0
2015-Apr-14 22:33N 43°35' E 007°08'0 0.0
2015-Apr-14 21:33N 43°35' E 007°08'0 0.0
2015-Apr-14 20:33N 43°35' E 007°08'0 0.0
2015-Apr-14 19:33N 43°35' E 007°08'0 0.0
2015-Apr-14 18:33N 43°35' E 007°08'0 0.0
2015-Apr-14 17:33N 43°35' E 007°08'0 0.0
2015-Apr-14 16:33N 43°35' E 007°08'0 0.0
2015-Apr-14 15:33N 43°35' E 007°08'0 0.0
2015-Apr-14 14:33N 43°35' E 007°08'0 0.0
2015-Apr-14 13:33N 43°35' E 007°08'0 0.0
2015-Apr-14 12:27N 43°35' E 007°08'0 0.0
2015-Apr-14 11:33N 43°35' E 007°08'0 0.0
2015-Apr-14 10:33N 43°35' E 007°08'0 0.0
2015-Apr-14 09:33N 43°35' E 007°08'0 0.0
2015-Apr-14 08:33N 43°35' E 007°08'0 0.0
2015-Apr-14 07:33N 43°35' E 007°08'0 0.0
2015-Apr-14 06:33N 43°35' E 007°08'0 0.0
2015-Apr-14 05:33N 43°35' E 007°08'0 0.0
2015-Apr-14 04:33N 43°35' E 007°08'0 0.0
2015-Apr-14 03:33N 43°35' E 007°08'0 0.0
2015-Apr-14 02:33N 43°35' E 007°08'0 0.0
2015-Apr-14 01:33N 43°35' E 007°08'0 0.0
2015-Apr-14 00:32N 43°35' E 007°08'0 0.0
2015-Apr-13 23:27N 43°35' E 007°08'0 0.0
2015-Apr-13 22:33N 43°35' E 007°08'0 0.0
2015-Apr-13 21:33N 43°35' E 007°08'0 0.0
2015-Apr-13 20:33N 43°35' E 007°08'0 0.0
2015-Apr-13 19:32N 43°35' E 007°08'0 0.0
2015-Apr-13 18:33N 43°35' E 007°08'0 0.0
2015-Apr-13 17:33N 43°35' E 007°08'0 0.0
2015-Apr-13 16:33N 43°35' E 007°08'0 0.0
2015-Apr-13 15:33N 43°35' E 007°08'0 0.0
2015-Apr-13 14:32N 43°35' E 007°08'0 0.0
2015-Apr-13 13:32N 43°35' E 007°08'0 0.0
2015-Apr-13 12:32N 43°35' E 007°08'0 0.0
2015-Apr-13 11:33N 43°35' E 007°08'0 0.0
2015-Apr-13 10:33N 43°35' E 007°08'0 0.0
2015-Apr-13 09:33N 43°35' E 007°08'0 0.0
2015-Apr-13 08:33N 43°35' E 007°08'0 0.0
2015-Apr-13 07:33N 43°35' E 007°08'0 0.0
2015-Apr-13 06:32N 43°35' E 007°08'0 0.0
2015-Apr-13 05:32N 43°35' E 007°08'0 0.0
2015-Apr-13 04:32N 43°35' E 007°08'0 0.0
2015-Apr-13 03:32N 43°35' E 007°08'0 0.0
2015-Apr-13 02:32N 43°35' E 007°08'0 0.0
2015-Apr-13 01:32N 43°35' E 007°08'0 0.0
2015-Apr-13 00:32N 43°35' E 007°08'0 0.0
2015-Apr-12 23:32N 43°35' E 007°08'0 0.0
2015-Apr-12 22:32N 43°35' E 007°08'0 0.0
2015-Apr-12 21:32N 43°35' E 007°08'0 0.0
2015-Apr-12 20:32N 43°35' E 007°08'0 0.0
2015-Apr-12 19:32N 43°35' E 007°08'0 0.0
2015-Apr-12 18:32N 43°35' E 007°08'0 0.0
2015-Apr-12 17:32N 43°35' E 007°08'0 0.0
2015-Apr-12 16:26N 43°35' E 007°08'0 0.0
2015-Apr-12 15:32N 43°35' E 007°08'0 0.0
2015-Apr-12 14:32N 43°35' E 007°08'0 0.0
2015-Apr-12 13:32N 43°35' E 007°08'0 0.0
2015-Apr-12 12:32N 43°35' E 007°08'0 0.0
2015-Apr-12 11:32N 43°35' E 007°08'0 0.0
2015-Apr-12 10:32N 43°35' E 007°08'0 0.0
2015-Apr-12 09:32N 43°35' E 007°08'0 0.0
2015-Apr-12 08:32N 43°35' E 007°08'0 0.0
2015-Apr-12 07:32N 43°35' E 007°08'0 0.0
2015-Apr-12 06:32N 43°35' E 007°08'0 0.0
2015-Apr-12 05:32N 43°35' E 007°08'0 0.0
2015-Apr-12 04:26N 43°35' E 007°08'0 0.0
2015-Apr-12 03:32N 43°35' E 007°08'0 0.0
2015-Apr-12 02:20N 43°35' E 007°08'0 0.0
2015-Apr-12 01:32N 43°35' E 007°08'0 0.0
2015-Apr-12 00:32N 43°35' E 007°08'0 0.0
2015-Apr-11 23:20N 43°35' E 007°08'0 0.0
2015-Apr-11 22:32N 43°35' E 007°08'0 0.0
2015-Apr-11 21:32N 43°35' E 007°08'0 0.0
2015-Apr-11 20:32N 43°35' E 007°08'0 0.0
2015-Apr-11 19:32N 43°35' E 007°08'0 0.0
2015-Apr-11 18:32N 43°35' E 007°08'0 0.0
2015-Apr-11 17:32N 43°35' E 007°08'0 0.0
2015-Apr-11 16:32N 43°35' E 007°08'0 0.0
2015-Apr-11 15:32N 43°35' E 007°08'0 0.0
2015-Apr-11 14:32N 43°35' E 007°08'0 0.0
2015-Apr-11 13:32N 43°35' E 007°08'0 0.0
2015-Apr-11 12:32N 43°35' E 007°08'0 0.0
2015-Apr-11 11:32N 43°35' E 007°08'0 0.0
2015-Apr-11 10:26N 43°35' E 007°08'0 0.0
2015-Apr-11 09:32N 43°35' E 007°08'0 0.0
2015-Apr-11 08:32N 43°35' E 007°08'0 0.0
2015-Apr-11 07:32N 43°35' E 007°08'0 0.0
2015-Apr-11 06:32N 43°35' E 007°08'0 0.0
2015-Apr-11 05:32N 43°35' E 007°08'0 0.0
2015-Apr-11 04:32N 43°35' E 007°08'0 0.0
2015-Apr-11 03:14N 43°35' E 007°08'0 0.0
2015-Apr-11 02:32N 43°35' E 007°08'0 0.0
2015-Apr-11 01:32N 43°35' E 007°08'0 0.0
2015-Apr-11 00:32N 43°35' E 007°08'0 0.0
2015-Apr-10 23:32N 43°35' E 007°08'0 0.0
2015-Apr-10 22:32N 43°35' E 007°08'0 0.0
2015-Apr-10 21:32N 43°35' E 007°08'0 0.0
2015-Apr-10 20:32N 43°35' E 007°08'0 0.0
2015-Apr-10 19:32N 43°35' E 007°08'0 0.0
2015-Apr-10 18:32N 43°35' E 007°08'0 0.0
2015-Apr-10 17:32N 43°35' E 007°08'0 0.0
2015-Apr-10 16:32N 43°35' E 007°08'0 0.0
2015-Apr-10 15:32N 43°35' E 007°08'0 0.0
2015-Apr-10 14:32N 43°35' E 007°08'0 0.0
2015-Apr-10 13:32N 43°35' E 007°08'0 0.0
2015-Apr-10 12:32N 43°35' E 007°08'0 0.0
2015-Apr-10 11:32N 43°35' E 007°08'0 0.0
2015-Apr-10 10:32N 43°35' E 007°08'0 0.0
2015-Apr-10 09:26N 43°35' E 007°08'0 0.0
2015-Apr-10 08:32N 43°35' E 007°08'0 0.0
2015-Apr-10 07:32N 43°35' E 007°08'0 0.0
2015-Apr-10 06:32N 43°35' E 007°08'0 0.0
2015-Apr-10 05:32N 43°35' E 007°08'0 0.0
2015-Apr-10 04:32N 43°35' E 007°08'0 0.0
2015-Apr-10 03:32N 43°35' E 007°08'0 0.0
2015-Apr-10 02:32N 43°35' E 007°08'0 0.0
2015-Apr-10 01:26N 43°35' E 007°08'0 0.0
2015-Apr-10 00:32N 43°35' E 007°08'0 0.0
2015-Apr-09 23:32N 43°35' E 007°08'0 0.0
2015-Apr-09 22:32N 43°35' E 007°08'0 0.0
2015-Apr-09 21:32N 43°35' E 007°08'0 0.0
2015-Apr-09 20:32N 43°35' E 007°08'0 0.0
2015-Apr-09 19:32N 43°35' E 007°08'0 0.0
2015-Apr-09 18:32N 43°35' E 007°08'0 0.0
2015-Apr-09 17:26N 43°35' E 007°08'0 0.0
2015-Apr-09 16:20N 43°35' E 007°08'0 0.0
2015-Apr-09 15:32N 43°35' E 007°08'0 0.0
2015-Apr-09 14:32N 43°35' E 007°08'0 0.0
2015-Apr-09 13:32N 43°35' E 007°08'0 0.0
2015-Apr-09 12:32N 43°35' E 007°08'0 0.0
2015-Apr-09 11:32N 43°35' E 007°08'0 0.0
2015-Apr-09 10:32N 43°35' E 007°08'0 0.0
2015-Apr-09 09:26N 43°35' E 007°08'0 0.0
2015-Apr-09 08:32N 43°35' E 007°08'0 0.0
2015-Apr-09 07:32N 43°35' E 007°08'0 0.0
2015-Apr-09 06:32N 43°35' E 007°08'0 0.0
2015-Apr-09 05:32N 43°35' E 007°08'0 0.0
2015-Apr-09 04:32N 43°35' E 007°08'0 0.0
2015-Apr-09 03:26N 43°35' E 007°08'0 0.0
2015-Apr-09 02:32N 43°35' E 007°08'0 0.0
2015-Apr-09 01:26N 43°35' E 007°08'0 0.0
2015-Apr-09 00:32N 43°35' E 007°08'0 0.0
2015-Apr-08 23:32N 43°35' E 007°08'0 0.0
2015-Apr-08 22:32N 43°35' E 007°08'0 0.0
2015-Apr-08 21:26N 43°35' E 007°08'0 0.0
2015-Apr-08 20:32N 43°35' E 007°08'0 0.0
2015-Apr-08 19:32N 43°35' E 007°08'0 0.0
2015-Apr-08 18:32N 43°35' E 007°08'0 0.0
2015-Apr-08 17:26N 43°35' E 007°08'0 0.0
2015-Apr-08 16:32N 43°35' E 007°08'0 0.0
2015-Apr-08 15:32N 43°35' E 007°08'0 0.0
2015-Apr-08 14:32N 43°35' E 007°08'0 0.0
2015-Apr-08 13:32N 43°35' E 007°08'  

Dump ship's entire track history